Time;durP1;ratioP1;P1;durP2;ratioP2;P2;SDS_P1;SDS_P2;PMS_P1;PMS_P2;Temp;Humidity;BMP_temperature;BMP_pressure;BME280_temperature;BME280_humidity;BME280_pressure;Samples;Min_cycle;Max_cycle;Signal;HPM_P1;HPM_P2
2023/09/03 00:01:49;;;;;;;10.53;6.57;;;20.70;99.90;;;;;;4958052;28;20026;-20
2023/09/03 00:04:15;;;;;;;11.32;6.80;;;20.70;99.90;;;;;;4962619;28;20672;-21
2023/09/03 00:06:40;;;;;;;11.50;6.73;;;20.70;99.90;;;;;;4946028;28;20327;-20
2023/09/03 00:09:06;;;;;;;10.20;6.22;;;20.70;99.90;;;;;;4980243;28;20036;-20
2023/09/03 00:11:32;;;;;;;10.50;6.50;;;20.60;99.90;;;;;;4959841;28;20230;-20
2023/09/03 00:13:58;;;;;;;10.50;6.33;;;20.60;99.90;;;;;;4948882;28;20088;-21
2023/09/03 00:16:25;;;;;;;10.98;6.70;;;20.60;99.90;;;;;;4950281;28;20232;-20
2023/09/03 00:18:51;;;;;;;11.10;6.55;;;20.50;99.90;;;;;;4980024;28;20029;-21
2023/09/03 00:21:17;;;;;;;11.32;6.90;;;20.50;99.90;;;;;;4957104;28;20260;-20
2023/09/03 00:23:43;;;;;;;11.13;6.50;;;20.50;99.90;;;;;;4964811;28;20097;-21
2023/09/03 00:26:21;;;;;;;11.68;6.80;;;20.50;99.90;;;;;;4964238;28;20560;-22
2023/09/03 00:28:49;;;;;;;11.15;6.68;;;20.50;99.90;;;;;;4981369;28;20026;-20
2023/09/03 00:31:15;;;;;;;10.32;6.45;;;20.40;99.90;;;;;;4945666;28;20118;-20
2023/09/03 00:33:41;;;;;;;10.87;6.57;;;20.40;99.90;;;;;;4980069;28;20088;-22
2023/09/03 00:36:12;;;;;;;11.70;6.63;;;20.40;99.90;;;;;;4975638;28;20503;-22
2023/09/03 00:38:39;;;;;;;11.50;6.70;;;20.30;99.90;;;;;;4963871;28;20092;-21
2023/09/03 00:41:05;;;;;;;10.95;6.68;;;20.30;99.90;;;;;;4961461;28;20062;-21
2023/09/03 00:43:32;;;;;;;12.02;7.35;;;20.20;99.90;;;;;;4963243;28;20259;-20
2023/09/03 00:46:01;;;;;;;12.00;7.60;;;20.30;99.90;;;;;;4943957;28;20092;-22
2023/09/03 00:48:28;;;;;;;13.17;7.50;;;20.30;99.90;;;;;;4949587;28;20125;-20
2023/09/03 00:50:58;;;;;;;13.57;7.72;;;20.20;99.90;;;;;;4979463;28;20034;-22
2023/09/03 00:53:27;;;;;;;13.48;7.90;;;20.20;99.90;;;;;;4970305;28;20444;-22
2023/09/03 00:55:54;;;;;;;13.43;8.00;;;20.20;99.90;;;;;;4971116;28;20049;-23
2023/09/03 00:58:20;;;;;;;12.98;7.10;;;20.10;99.90;;;;;;4939085;28;20369;-22
2023/09/03 01:00:46;;;;;;;12.23;6.90;;;20.10;99.90;;;;;;4978435;28;20030;-22
2023/09/03 01:03:13;;;;;;;11.70;6.78;;;20.10;99.90;;;;;;4965277;22;20173;-87
2023/09/03 01:05:39;;;;;;;10.80;6.45;;;20.00;99.90;;;;;;4967221;28;20026;-85
2023/09/03 01:08:05;;;;;;;11.90;7.35;;;20.00;99.90;;;;;;4965680;28;20228;-86
2023/09/03 01:10:49;;;;;;;12.48;7.80;;;20.00;99.90;;;;;;4974574;28;20509;-86
2023/09/03 01:13:21;;;;;;;13.93;7.67;;;19.90;99.90;;;;;;4982058;28;20036;-85
2023/09/03 01:15:53;;;;;;;13.35;7.57;;;19.90;99.90;;;;;;4966967;28;20499;-84
2023/09/03 01:18:21;;;;;;;15.73;8.05;;;19.90;99.90;;;;;;4961255;28;20030;-85
2023/09/03 01:21:00;;;;;;;13.05;6.95;;;19.90;99.90;;;;;;4966902;28;20475;-84
2023/09/03 01:24:04;;;;;;;12.00;6.88;;;19.90;99.90;;;;;;4972501;28;20088;-84
2023/09/03 01:26:55;;;;;;;10.83;6.60;;;19.80;99.90;;;;;;4907227;29;20035;-85
2023/09/03 01:29:22;;;;;;;10.27;6.00;;;19.80;99.90;;;;;;4949154;28;20045;-84
2023/09/03 01:31:49;;;;;;;10.88;6.50;;;19.80;99.90;;;;;;4971469;28;20383;-84
2023/09/03 01:34:16;;;;;;;11.05;6.15;;;19.70;99.90;;;;;;4962177;28;20477;-85
2023/09/03 01:36:43;;;;;;;13.13;7.18;;;19.70;99.90;;;;;;4967119;28;20402;-85
2023/09/03 01:39:08;;;;;;;12.53;7.53;;;19.70;99.90;;;;;;4951418;28;20030;-85
2023/09/03 01:41:35;;;;;;;10.95;6.85;;;19.70;99.90;;;;;;4969583;28;20531;-84
2023/09/03 01:44:10;;;;;;;10.52;6.50;;;;;;;;;;4969449;28;20521;-85
2023/09/03 01:46:45;;;;;;;11.48;7.03;;;19.60;99.90;;;;;;4986121;28;20044;-84
2023/09/03 01:49:18;;;;;;;10.70;6.80;;;19.60;99.90;;;;;;4962511;28;20061;-86
2023/09/03 01:51:56;;;;;;;11.52;6.45;;;19.60;99.90;;;;;;4953275;28;20026;-84
2023/09/03 01:54:32;;;;;;;11.25;6.75;;;19.50;99.90;;;;;;4965386;28;20134;-84
2023/09/03 01:57:03;;;;;;;10.55;6.50;;;19.50;99.90;;;;;;4968549;28;20029;-85
2023/09/03 01:59:51;;;;;;;12.15;6.43;;;19.50;99.90;;;;;;4954959;28;20034;-85
2023/09/03 02:02:17;;;;;;;11.50;6.77;;;;;;;;;;4969562;28;20049;-85
2023/09/03 02:04:43;;;;;;;10.18;6.03;;;19.40;99.90;;;;;;4963506;28;20383;-86
2023/09/03 02:07:09;;;;;;;11.60;6.88;;;19.40;99.90;;;;;;4980095;28;20026;-85
2023/09/03 02:09:35;;;;;;;12.07;6.67;;;19.40;99.90;;;;;;4950682;28;20018;-86
2023/09/03 02:12:02;;;;;;;12.10;6.72;;;19.40;99.90;;;;;;4950615;28;20541;-86
2023/09/03 02:14:28;;;;;;;12.48;6.90;;;19.40;99.90;;;;;;4963962;28;20019;-85
2023/09/03 02:16:54;;;;;;;10.93;6.30;;;19.30;99.90;;;;;;4968560;28;20597;-85
2023/09/03 02:19:20;;;;;;;8.93;5.77;;;19.30;99.90;;;;;;4962847;28;20050;-85
2023/09/03 02:21:46;;;;;;;10.23;5.80;;;19.30;99.90;;;;;;4968282;28;20509;-85
2023/09/03 02:24:12;;;;;;;9.30;5.82;;;19.30;99.90;;;;;;4971071;28;20041;-84
2023/09/03 02:26:45;;;;;;;11.07;6.70;;;19.30;99.90;;;;;;4958034;28;20019;-84
2023/09/03 02:29:11;;;;;;;10.68;6.55;;;19.30;99.90;;;;;;4972425;28;20023;-85
2023/09/03 02:31:37;;;;;;;10.77;6.25;;;19.30;99.90;;;;;;4988835;28;20041;-84
2023/09/03 02:34:05;;;;;;;10.05;6.32;;;19.20;99.90;;;;;;4985918;28;20026;-85
2023/09/03 02:36:31;;;;;;;10.40;6.05;;;19.20;99.90;;;;;;4955047;28;20557;-85
2023/09/03 02:39:02;;;;;;;10.20;6.10;;;19.20;99.90;;;;;;4953531;28;20151;-85
2023/09/03 02:41:32;;;;;;;8.75;5.50;;;19.20;99.90;;;;;;4965903;28;20018;-85
2023/09/03 02:43:59;;;;;;;10.20;6.20;;;19.10;99.90;;;;;;4988015;28;20035;-85
2023/09/03 02:46:25;;;;;;;8.43;5.45;;;19.10;99.90;;;;;;4969470;28;20369;-85
2023/09/03 02:48:51;;;;;;;9.25;5.95;;;19.10;99.90;;;;;;4965642;28;20018;-85
2023/09/03 02:51:17;;;;;;;10.17;6.20;;;19.10;99.90;;;;;;4969293;28;21221;-85
2023/09/03 02:53:45;;;;;;;8.52;5.28;;;19.00;99.90;;;;;;4986554;28;20525;-86
2023/09/03 02:56:12;;;;;;;9.30;5.47;;;19.00;99.90;;;;;;4972383;28;20026;-84
2023/09/03 02:58:38;;;;;;;10.10;5.60;;;18.90;99.90;;;;;;4970620;28;20117;-85
2023/09/03 03:01:06;;;;;;;10.87;6.37;;;19.00;99.90;;;;;;4973405;28;20134;-86
2023/09/03 03:03:32;;;;;;;11.52;6.97;;;18.90;99.90;;;;;;4963269;28;20046;-84
2023/09/03 03:05:58;;;;;;;10.98;7.07;;;18.90;99.90;;;;;;4964113;28;20118;-84
2023/09/03 03:08:24;;;;;;;11.27;6.70;;;18.90;99.90;;;;;;4963283;28;20435;-85
2023/09/03 03:10:50;;;;;;;9.73;6.27;;;18.80;99.90;;;;;;4970411;28;20026;-86
2023/09/03 03:13:16;;;;;;;9.73;6.07;;;18.80;99.90;;;;;;4971987;28;20031;-85
2023/09/03 03:15:42;;;;;;;9.65;5.93;;;18.80;99.90;;;;;;4982340;28;20086;-85
2023/09/03 03:18:07;;;;;;;8.93;5.67;;;18.80;99.90;;;;;;4966475;28;20373;-86
2023/09/03 03:20:33;;;;;;;10.88;6.07;;;18.80;99.90;;;;;;4978544;28;20035;-84
2023/09/03 03:22:59;;;;;;;10.63;6.37;;;18.80;99.90;;;;;;4960181;28;20030;-85
2023/09/03 03:25:24;;;;;;;9.85;6.57;;;18.80;99.90;;;;;;4963592;28;20672;-86
2023/09/03 03:27:50;;;;;;;10.30;6.40;;;18.80;99.90;;;;;;4959306;28;20110;-85
2023/09/03 03:30:16;;;;;;;10.02;6.30;;;18.70;99.90;;;;;;4952461;28;20065;-85
2023/09/03 03:32:41;;;;;;;9.77;5.83;;;18.70;99.90;;;;;;4969483;28;20578;-84
2023/09/03 03:35:08;;;;;;;8.85;5.75;;;18.70;99.90;;;;;;4961741;28;20050;-85
2023/09/03 03:37:34;;;;;;;8.90;5.57;;;18.70;99.90;;;;;;4967324;28;20148;-85
2023/09/03 03:40:00;;;;;;;8.30;5.13;;;18.70;99.90;;;;;;4946785;28;20503;-85
2023/09/03 03:42:26;;;;;;;8.25;5.22;;;18.60;99.90;;;;;;4949651;28;20046;-86
2023/09/03 03:44:51;;;;;;;8.53;5.67;;;18.60;99.90;;;;;;4951615;28;20113;-85
2023/09/03 03:47:17;;;;;;;10.82;6.18;;;18.60;99.90;;;;;;4950711;28;20629;-84
2023/09/03 03:49:43;;;;;;;9.67;6.27;;;18.60;99.90;;;;;;4966523;28;20031;-85
2023/09/03 03:52:09;;;;;;;12.23;6.40;;;18.60;99.90;;;;;;4963975;28;20057;-84
2023/09/03 03:54:35;;;;;;;10.63;6.40;;;18.50;99.90;;;;;;4952548;28;20030;-84
2023/09/03 03:57:01;;;;;;;9.55;5.93;;;18.50;99.90;;;;;;4966761;28;20038;-85
2023/09/03 03:59:28;;;;;;;10.15;6.05;;;18.40;99.90;;;;;;4951775;28;20033;-85
2023/09/03 04:01:53;;;;;;;9.07;5.72;;;18.40;99.90;;;;;;4969627;28;20524;-86
2023/09/03 04:04:21;;;;;;;9.60;6.00;;;18.40;99.90;;;;;;4958880;28;20085;-85
2023/09/03 04:06:47;;;;;;;9.40;6.10;;;18.40;99.90;;;;;;4984613;28;20439;-85
2023/09/03 04:09:13;;;;;;;8.27;5.45;;;18.40;99.90;;;;;;4988719;28;20030;-85
2023/09/03 04:11:39;;;;;;;9.40;5.63;;;18.30;99.90;;;;;;4948545;28;20027;-85
2023/09/03 04:14:04;;;;;;;8.05;5.10;;;18.30;99.90;;;;;;4967758;28;20085;-85
2023/09/03 04:16:30;;;;;;;8.07;5.22;;;18.30;99.90;;;;;;4971341;28;20142;-85
2023/09/03 04:18:56;;;;;;;9.13;5.70;;;18.30;99.90;;;;;;4976112;28;20026;-85
2023/09/03 04:21:22;;;;;;;9.77;5.47;;;18.20;99.90;;;;;;4971041;28;20021;-84
2023/09/03 04:23:49;;;;;;;9.43;5.63;;;18.20;99.90;;;;;;4949546;28;20073;-84
2023/09/03 04:26:16;;;;;;;8.68;5.65;;;18.20;99.90;;;;;;4968953;28;20030;-85
2023/09/03 04:28:41;;;;;;;8.38;5.45;;;18.10;99.90;;;;;;4963397;28;20702;-84
2023/09/03 04:31:10;;;;;;;8.50;5.67;;;18.10;99.90;;;;;;4970053;28;20495;-84
2023/09/03 04:33:36;;;;;;;7.63;4.97;;;18.10;99.90;;;;;;4963826;28;20018;-84
2023/09/03 04:36:03;;;;;;;8.85;5.60;;;18.00;99.90;;;;;;4971782;28;20355;-84
2023/09/03 04:38:29;;;;;;;8.25;5.47;;;18.00;99.90;;;;;;4950049;28;20487;-85
2023/09/03 04:40:56;;;;;;;8.75;5.40;;;18.00;99.90;;;;;;4969751;28;20069;-85
2023/09/03 04:43:23;;;;;;;8.27;5.23;;;17.90;99.90;;;;;;4948026;28;20060;-84
2023/09/03 04:45:51;;;;;;;8.35;5.50;;;17.90;99.90;;;;;;4982333;28;20057;-85
2023/09/03 04:48:18;;;;;;;7.88;4.90;;;17.80;99.90;;;;;;4971556;28;20061;-85
2023/09/03 04:50:44;;;;;;;8.13;5.30;;;17.80;99.90;;;;;;4954190;28;20491;-85
2023/09/03 04:53:13;;;;;;;7.53;4.85;;;17.80;99.90;;;;;;4956093;28;20438;-83
2023/09/03 04:55:40;;;;;;;8.53;5.20;;;17.80;99.90;;;;;;4966454;28;20480;-85
2023/09/03 04:58:05;;;;;;;8.05;5.45;;;17.80;99.90;;;;;;4967662;28;20058;-85
2023/09/03 05:00:32;;;;;;;8.95;5.60;;;17.70;99.90;;;;;;4967380;28;20080;-85
2023/09/03 05:02:58;;;;;;;7.95;5.10;;;17.80;99.90;;;;;;4965233;28;20476;-86
2023/09/03 05:05:24;;;;;;;8.40;5.30;;;17.70;99.90;;;;;;4985170;28;20101;-85
2023/09/03 05:07:51;;;;;;;7.68;5.07;;;17.70;99.90;;;;;;4982786;28;20058;-86
2023/09/03 05:10:17;;;;;;;8.35;5.28;;;17.70;99.90;;;;;;4951182;28;20478;-85
2023/09/03 05:12:43;;;;;;;8.23;5.67;;;17.70;99.90;;;;;;4980804;28;20049;-86
2023/09/03 05:15:13;;;;;;;9.18;5.60;;;17.70;99.90;;;;;;4957850;28;20030;-85
2023/09/03 05:17:40;;;;;;;8.85;5.97;;;17.70;99.90;;;;;;4982087;28;20092;-85
2023/09/03 05:20:08;;;;;;;8.95;5.85;;;17.70;99.90;;;;;;4970059;28;20026;-86
2023/09/03 05:22:34;;;;;;;8.65;5.72;;;17.70;99.90;;;;;;4983456;28;20084;-85
2023/09/03 05:25:00;;;;;;;8.13;5.70;;;17.70;99.90;;;;;;4964482;28;20105;-86
2023/09/03 05:27:30;;;;;;;8.98;6.03;;;17.70;99.90;;;;;;4952431;28;20118;-86
2023/09/03 05:29:56;;;;;;;8.30;5.53;;;17.70;99.90;;;;;;4983691;28;20370;-85
2023/09/03 05:32:22;;;;;;;8.35;5.70;;;17.70;99.90;;;;;;4967123;28;20022;-86
2023/09/03 05:34:50;;;;;;;8.38;5.43;;;17.70;99.90;;;;;;4970546;28;20058;-85
2023/09/03 05:37:15;;;;;;;7.37;5.03;;;17.80;99.90;;;;;;4980486;28;20068;-85
2023/09/03 05:39:41;;;;;;;8.60;5.25;;;17.80;99.90;;;;;;4962876;28;20767;-86
2023/09/03 05:42:07;;;;;;;7.83;5.00;;;17.80;99.90;;;;;;4959093;28;20037;-86
2023/09/03 05:44:33;;;;;;;8.10;5.22;;;17.80;99.90;;;;;;4960148;28;20038;-85
2023/09/03 05:46:58;;;;;;;9.57;5.90;;;17.90;99.90;;;;;;4986400;28;20019;-86
2023/09/03 05:49:25;;;;;;;9.00;5.57;;;17.90;99.90;;;;;;4984186;28;20027;-85
2023/09/03 05:51:51;;;;;;;7.65;4.95;;;17.90;99.90;;;;;;4983367;28;20092;-84
2023/09/03 05:54:16;;;;;;;8.60;4.73;;;17.90;99.90;;;;;;4950770;28;20046;-85
2023/09/03 05:56:42;;;;;;;7.30;4.97;;;18.00;99.90;;;;;;4981763;28;20329;-85
2023/09/03 05:59:10;;;;;;;8.40;5.43;;;18.00;99.90;;;;;;4983874;28;20519;-85
2023/09/03 06:01:36;;;;;;;9.02;5.70;;;18.10;99.90;;;;;;4964194;28;20766;-85
2023/09/03 06:04:04;;;;;;;7.60;4.70;;;18.00;99.90;;;;;;4961056;28;20135;-85
2023/09/03 06:06:38;;;;;;;7.63;5.55;;;18.10;99.90;;;;;;4968094;28;20045;-86
2023/09/03 06:09:08;;;;;;;8.90;5.57;;;18.10;99.90;;;;;;4971401;28;20101;-85
2023/09/03 06:11:35;;;;;;;7.40;5.18;;;18.10;99.90;;;;;;4963127;28;20279;-84
2023/09/03 06:14:03;;;;;;;8.05;5.55;;;18.20;99.90;;;;;;4967366;28;20503;-85
2023/09/03 06:16:28;;;;;;;8.27;5.87;;;18.20;99.90;;;;;;4979682;28;20026;-84
2023/09/03 06:18:54;;;;;;;8.25;5.93;;;18.30;99.90;;;;;;4957988;28;20026;-85
2023/09/03 06:21:20;;;;;;;9.53;6.20;;;18.30;99.90;;;;;;4972908;28;20023;-85
2023/09/03 06:23:46;;;;;;;9.80;6.57;;;18.30;99.90;;;;;;4960864;28;20235;-84
2023/09/03 06:26:13;;;;;;;11.20;6.75;;;18.40;99.90;;;;;;4967523;28;20022;-86
2023/09/03 06:28:39;;;;;;;11.03;6.87;;;18.40;99.90;;;;;;4967892;28;20030;-85
2023/09/03 06:31:05;;;;;;;10.10;6.38;;;18.50;99.90;;;;;;4953587;28;20526;-85
2023/09/03 06:33:31;;;;;;;9.98;6.53;;;18.50;99.90;;;;;;4949780;28;20015;-85
2023/09/03 06:35:56;;;;;;;9.73;6.47;;;18.50;99.90;;;;;;4954219;28;20043;-84
2023/09/03 06:38:22;;;;;;;10.77;6.47;;;18.60;99.90;;;;;;4969821;28;20023;-85
2023/09/03 06:40:49;;;;;;;10.00;6.40;;;18.60;99.90;;;;;;4952591;28;20289;-84
2023/09/03 06:43:15;;;;;;;10.13;6.63;;;18.70;99.90;;;;;;4975007;28;20440;-85
2023/09/03 06:45:41;;;;;;;10.35;6.60;;;18.70;99.90;;;;;;4951653;28;20049;-85
2023/09/03 06:48:08;;;;;;;10.60;6.63;;;18.80;99.90;;;;;;4978023;28;20118;-85
2023/09/03 06:50:34;;;;;;;10.10;6.80;;;18.80;99.90;;;;;;4962674;28;20022;-84
2023/09/03 06:53:00;;;;;;;11.75;7.10;;;18.90;99.90;;;;;;4966553;28;20364;-85
2023/09/03 06:55:26;;;;;;;9.83;6.80;;;18.90;99.90;;;;;;4976841;28;20121;-84
2023/09/03 06:57:51;;;;;;;10.23;6.70;;;19.00;99.90;;;;;;4972051;28;20282;-85
2023/09/03 07:00:17;;;;;;;10.77;7.07;;;19.10;99.90;;;;;;4955362;28;20525;-85
2023/09/03 07:02:43;;;;;;;10.50;6.80;;;19.20;99.90;;;;;;4946300;28;20050;-84
2023/09/03 07:05:09;;;;;;;11.23;7.45;;;19.20;99.90;;;;;;4971112;28;20446;-85
2023/09/03 07:07:35;;;;;;;12.20;7.53;;;19.30;99.90;;;;;;4964396;28;20643;-85
2023/09/03 07:10:01;;;;;;;11.43;7.85;;;19.40;99.90;;;;;;4970218;28;20215;-86
2023/09/03 07:12:27;;;;;;;11.07;7.43;;;19.50;99.90;;;;;;4949872;28;20023;-85
2023/09/03 07:14:53;;;;;;;11.17;7.40;;;19.50;99.90;;;;;;4963791;28;20062;-85
2023/09/03 07:17:18;;;;;;;11.77;7.45;;;19.70;99.90;;;;;;4967303;28;20680;-85
2023/09/03 07:19:45;;;;;;;13.38;8.07;;;19.70;99.90;;;;;;4967623;28;20085;-85
2023/09/03 07:22:11;;;;;;;12.57;7.73;;;19.80;99.90;;;;;;4971371;28;20084;-86
2023/09/03 07:24:37;;;;;;;12.18;8.02;;;19.90;99.90;;;;;;4954854;28;20494;-85
2023/09/03 07:27:02;;;;;;;11.32;7.65;;;20.00;99.90;;;;;;4976766;28;20049;-85
2023/09/03 07:29:28;;;;;;;13.67;7.77;;;20.10;99.90;;;;;;4988659;28;20093;-85
2023/09/03 07:31:54;;;;;;;12.23;8.00;;;20.20;99.90;;;;;;4963917;28;20255;-85
2023/09/03 07:34:20;;;;;;;12.73;8.10;;;20.30;99.90;;;;;;4957692;28;20081;-84
2023/09/03 07:36:46;;;;;;;13.48;8.10;;;20.40;99.90;;;;;;4988295;28;20034;-86
2023/09/03 07:39:11;;;;;;;13.07;8.60;;;20.50;99.90;;;;;;4964720;28;20515;-85
2023/09/03 07:41:38;;;;;;;13.50;8.13;;;20.60;99.90;;;;;;4953521;28;20041;-86
2023/09/03 07:44:04;;;;;;;13.50;8.30;;;20.80;99.90;;;;;;4949694;28;20046;-86
2023/09/03 07:46:30;;;;;;;15.55;8.43;;;20.90;99.90;;;;;;4943888;28;20402;-85
2023/09/03 07:48:56;;;;;;;13.77;8.60;;;21.00;99.90;;;;;;4966176;28;20060;-86
2023/09/03 07:51:23;;;;;;;14.57;8.83;;;;;;;;;;4953943;28;20088;-86
2023/09/03 07:53:49;;;;;;;14.38;8.48;;;21.30;99.90;;;;;;4980555;28;20101;-85
2023/09/03 07:56:16;;;;;;;13.95;8.55;;;21.50;99.90;;;;;;4971009;28;20053;-87
2023/09/03 07:58:44;;;;;;;14.05;9.13;;;21.60;99.90;;;;;;4947444;28;20536;-87
2023/09/03 08:01:11;;;;;;;13.65;8.35;;;21.70;99.90;;;;;;4971625;28;20034;-86
2023/09/03 08:03:39;;;;;;;15.03;8.70;;;21.80;99.90;;;;;;4965441;28;20550;-85
2023/09/03 08:06:09;;;;;;;15.30;9.27;;;22.00;99.90;;;;;;4990947;28;20030;-86
2023/09/03 08:08:35;;;;;;;16.38;9.13;;;22.10;99.90;;;;;;4964765;28;20034;-87
2023/09/03 08:11:02;;;;;;;15.38;9.32;;;22.30;99.90;;;;;;4986226;28;20027;-89
2023/09/03 08:13:28;;;;;;;13.90;8.82;;;22.50;99.90;;;;;;4964102;28;20526;-89
2023/09/03 08:15:54;;;;;;;14.13;8.60;;;22.80;99.90;;;;;;4970408;28;20027;-89
2023/09/03 08:18:21;;;;;;;12.27;8.07;;;23.00;99.90;;;;;;4961662;28;20049;-88
2023/09/03 08:20:51;;;;;;;11.98;8.48;;;23.40;99.90;;;;;;4972782;28;20534;-89
2023/09/03 08:23:17;;;;;;;13.57;8.60;;;23.70;99.90;;;;;;4984454;28;20034;-89
2023/09/03 08:25:44;;;;;;;13.40;8.70;;;24.10;99.90;;;;;;4947963;28;20022;-88
2023/09/03 08:28:11;;;;;;;13.70;8.73;;;24.50;99.90;;;;;;4968488;28;20035;-89
2023/09/03 08:30:37;;;;;;;13.95;9.10;;;24.70;99.90;;;;;;4953769;28;20026;-88
2023/09/03 08:33:03;;;;;;;13.02;8.50;;;25.10;99.90;;;;;;4954396;28;20033;-88
2023/09/03 08:35:29;;;;;;;13.27;8.50;;;25.30;99.90;;;;;;4962802;28;20110;-87
2023/09/03 08:37:55;;;;;;;12.37;8.13;;;25.60;99.90;;;;;;4973502;28;20038;-88
2023/09/03 08:40:23;;;;;;;11.02;8.07;;;25.90;99.90;;;;;;4971064;28;20026;-89
2023/09/03 08:42:49;;;;;;;12.07;7.85;;;26.30;99.90;;;;;;4953020;28;20518;-88
2023/09/03 08:45:19;;;;;;;11.63;8.40;;;26.60;99.90;;;;;;4980322;28;20035;-88
2023/09/03 08:47:45;;;;;;;11.50;7.67;;;27.00;99.90;;;;;;4969705;28;20475;-88
2023/09/03 08:50:13;;;;;;;10.63;7.22;;;27.40;99.90;;;;;;4942369;28;20026;-87
2023/09/03 08:52:41;;;;;;;12.00;7.72;;;27.90;99.90;;;;;;4951280;28;20018;-87
2023/09/03 08:55:09;;;;;;;11.10;7.50;;;28.30;99.90;;;;;;4956570;28;20113;-88
2023/09/03 08:57:34;;;;;;;11.07;8.07;;;28.60;99.90;;;;;;4950771;28;20237;-87
2023/09/03 09:00:05;;;;;;;10.03;7.23;;;28.90;99.90;;;;;;4954368;28;20030;-88
2023/09/03 09:02:33;;;;;;;10.00;7.45;;;29.20;99.90;;;;;;4964267;28;20132;-87
2023/09/03 09:05:04;;;;;;;9.50;7.13;;;29.50;99.90;;;;;;4943311;28;20054;-87
2023/09/03 09:07:31;;;;;;;9.55;7.18;;;29.70;99.90;;;;;;4945226;28;20022;-86
2023/09/03 09:10:00;;;;;;;8.35;6.63;;;29.90;99.90;;;;;;4965145;28;20072;-87
2023/09/03 09:12:31;;;;;;;9.70;7.07;;;30.10;99.90;;;;;;4962270;28;20019;-87
2023/09/03 09:15:05;;;;;;;8.80;6.50;;;30.30;99.90;;;;;;4965127;28;20042;-87
2023/09/03 09:17:41;;;;;;;9.43;6.35;;;30.30;99.90;;;;;;4943987;28;20490;-86
2023/09/03 09:20:09;;;;;;;8.43;6.65;;;30.50;99.90;;;;;;4949959;28;20192;-86
2023/09/03 09:22:42;;;;;;;9.32;6.88;;;30.50;99.90;;;;;;4953460;28;20069;-87
2023/09/03 09:25:09;;;;;;;7.37;6.00;;;30.70;99.90;;;;;;4953402;28;20034;-86
2023/09/03 09:27:38;;;;;;;7.50;5.63;;;30.70;99.90;;;;;;4964781;28;20019;-87
2023/09/03 09:30:15;;;;;;;8.48;6.15;;;30.80;99.90;;;;;;4968001;28;20018;-87
2023/09/03 09:32:42;;;;;;;8.75;6.35;;;31.00;99.90;;;;;;4983902;28;20050;-89
2023/09/03 09:35:09;;;;;;;7.75;6.05;;;31.20;99.90;;;;;;4957955;28;20027;-86
2023/09/03 09:37:41;;;;;;;7.77;5.97;;;31.40;99.90;;;;;;4954350;28;20041;-88
2023/09/03 09:40:08;;;;;;;7.72;6.13;;;31.50;99.90;;;;;;4953065;28;20411;-88
2023/09/03 09:42:50;;;;;;;8.90;6.05;;;31.70;99.90;;;;;;4985086;28;20090;-86
2023/09/03 09:45:16;;;;;;;6.68;5.18;;;31.90;99.90;;;;;;4962182;28;20471;-88
2023/09/03 09:47:42;;;;;;;6.27;5.20;;;32.10;99.90;;;;;;4964797;28;20027;-84
2023/09/03 09:50:08;;;;;;;7.30;5.67;;;32.30;99.90;;;;;;4976608;28;20278;-87
2023/09/03 09:52:35;;;;;;;7.28;5.90;;;32.50;99.90;;;;;;4967698;28;20026;-88
2023/09/03 09:55:01;;;;;;;6.85;5.65;;;32.80;99.90;;;;;;4971135;28;20034;-87
2023/09/03 09:57:28;;;;;;;6.80;5.88;;;32.90;99.90;;;;;;4947910;28;20035;-85
2023/09/03 10:00:03;;;;;;;7.50;5.63;;;33.10;99.90;;;;;;4947752;28;20030;-88
2023/09/03 10:02:29;;;;;;;6.88;5.85;;;33.30;99.90;;;;;;4940740;28;20122;-85
2023/09/03 10:04:56;;;;;;;7.07;5.53;;;33.60;99.90;;;;;;4958888;28;20031;-90
2023/09/03 10:07:22;;;;;;;6.88;5.20;;;33.80;99.90;;;;;;4950889;28;20451;-88
2023/09/03 10:09:48;;;;;;;6.17;5.07;;;34.00;99.90;;;;;;4962971;28;20035;-87
2023/09/03 10:12:14;;;;;;;6.35;4.90;;;34.30;99.90;;;;;;4938082;28;20027;-88
2023/09/03 10:14:40;;;;;;;5.38;4.60;;;34.50;99.90;;;;;;4964588;28;20038;-85
2023/09/03 10:17:07;;;;;;;5.68;4.75;;;34.70;99.90;;;;;;4960766;28;20018;-85
2023/09/03 10:19:55;;;;;;;5.83;5.00;;;34.90;99.90;;;;;;4961268;28;20043;-87
2023/09/03 10:22:23;;;;;;;7.28;5.10;;;35.10;98.70;;;;;;4951914;28;20039;-86
2023/09/03 10:25:07;;;;;;;6.05;5.15;;;35.30;99.90;;;;;;4945689;28;20128;-87
2023/09/03 10:27:38;;;;;;;6.15;5.35;;;35.40;97.70;;;;;;4966165;28;21029;-88
2023/09/03 10:30:07;;;;;;;5.55;4.70;;;35.50;99.90;;;;;;4955438;28;20018;-88
2023/09/03 10:32:34;;;;;;;5.00;4.47;;;35.70;99.90;;;;;;4943018;28;20034;-87
2023/09/03 10:35:10;;;;;;;5.47;4.57;;;35.80;99.90;;;;;;4936406;28;20391;-89
2023/09/03 10:37:40;;;;;;;5.10;4.25;;;36.00;97.90;;;;;;4953333;28;21036;-87
2023/09/03 10:40:23;;;;;;;5.28;4.40;;;36.00;98.70;;;;;;4963813;28;20054;-87
2023/09/03 10:42:50;;;;;;;4.22;3.83;;;34.80;97.70;;;;;;4953172;28;20043;-88
2023/09/03 10:45:15;;;;;;;5.07;3.90;;;36.10;99.30;;;;;;4963254;28;20041;-89
2023/09/03 10:48:03;;;;;;;4.18;3.78;;;36.10;99.00;;;;;;4940767;28;20018;-87
2023/09/03 10:50:42;;;;;;;4.63;3.90;;;36.00;96.30;;;;;;4955633;28;20023;-85
2023/09/03 10:53:09;;;;;;;4.22;3.50;;;35.90;95.00;;;;;;4971707;28;20042;-88
2023/09/03 10:55:35;;;;;;;4.00;3.60;;;35.80;98.60;;;;;;4962616;28;20039;-87
2023/09/03 10:58:10;;;;;;;4.30;3.67;;;35.80;98.70;;;;;;4938528;28;20035;-85
2023/09/03 11:00:37;;;;;;;4.53;4.00;;;35.80;96.90;;;;;;4949030;28;20058;-87
2023/09/03 11:03:17;;;;;;;4.35;3.67;;;35.80;99.50;;;;;;4942905;28;20046;-88
2023/09/03 11:06:38;;;;;;;5.03;3.63;;;35.80;95.70;;;;;;4937909;28;20034;-88
2023/09/03 11:09:05;;;;;;;4.30;3.90;;;36.00;95.40;;;;;;4871273;29;20093;-88
2023/09/03 11:11:35;;;;;;;4.28;3.88;;;36.10;99.90;;;;;;4955774;28;20233;-87
2023/09/03 11:14:02;;;;;;;4.15;3.35;;;36.30;97.50;;;;;;4941295;28;20026;-88
2023/09/03 11:16:31;;;;;;;3.72;3.42;;;36.50;99.70;;;;;;4956264;28;20097;-88
2023/09/03 11:18:58;;;;;;;3.80;3.50;;;36.70;97.60;;;;;;4956468;28;20038;-88
2023/09/03 11:21:28;;;;;;;3.63;3.30;;;36.80;99.30;;;;;;4937403;28;20130;-87
2023/09/03 11:24:16;;;;;;;4.72;3.70;;;37.00;98.70;;;;;;4963220;28;20122;-88
2023/09/03 11:26:42;;;;;;;3.90;3.40;;;38.50;96.20;;;;;;4962503;28;20058;-88
2023/09/03 11:29:38;;;;;;;3.00;2.70;;;37.20;98.20;;;;;;4955519;28;20031;-87
2023/09/03 11:32:04;;;;;;;4.75;3.03;;;37.30;93.70;;;;;;4935349;28;20039;-88
2023/09/03 11:34:30;;;;;;;3.00;2.70;;;37.30;97.50;;;;;;4954532;28;20026;-88
2023/09/03 11:36:57;;;;;;;2.92;2.40;;;37.40;97.10;;;;;;4945378;28;20061;-86
2023/09/03 11:39:23;;;;;;;3.03;2.70;;;37.30;96.60;;;;;;4950927;28;20019;-87
2023/09/03 11:41:49;;;;;;;2.90;2.70;;;37.40;96.60;;;;;;4963116;28;20039;-89
2023/09/03 11:44:23;;;;;;;3.37;2.77;;;37.40;96.20;;;;;;4972796;28;20045;-88
2023/09/03 11:46:56;;;;;;;3.25;2.95;;;37.30;92.60;;;;;;4964848;28;20038;-89
2023/09/03 11:49:22;;;;;;;3.20;2.90;;;37.30;93.20;;;;;;4956078;28;20121;-86
2023/09/03 11:51:47;;;;;;;3.00;2.70;;;37.30;95.90;;;;;;4957317;28;20475;-86
2023/09/03 11:54:26;;;;;;;5.50;4.00;;;37.30;95.50;;;;;;4941904;28;20507;-89
2023/09/03 11:56:59;;;;;;;5.15;4.00;;;37.30;91.80;;;;;;4957470;28;20138;-88
2023/09/03 11:59:25;;;;;;;3.88;3.47;;;37.20;92.80;;;;;;4949183;28;20030;-88
2023/09/03 12:01:52;;;;;;;4.35;3.63;;;37.20;95.30;;;;;;4951832;28;20404;-87
2023/09/03 12:04:18;;;;;;;4.23;3.33;;;37.20;94.50;;;;;;4940711;28;20056;-88
2023/09/03 12:06:44;;;;;;;3.38;3.08;;;37.10;94.70;;;;;;4960459;28;20027;-86
2023/09/03 12:09:10;;;;;;;4.65;3.35;;;37.10;94.80;;;;;;4928742;28;21308;-86
2023/09/03 12:11:36;;;;;;;3.30;3.00;;;37.10;94.80;;;;;;4953765;28;20177;-86
2023/09/03 12:14:02;;;;;;;3.38;3.08;;;37.10;94.80;;;;;;4956739;28;20025;-86
2023/09/03 12:16:28;;;;;;;3.30;3.00;;;37.20;94.50;;;;;;4925599;28;20023;-85
2023/09/03 12:18:59;;;;;;;3.50;3.20;;;37.20;94.60;;;;;;4971747;28;20038;-85
2023/09/03 12:21:35;;;;;;;3.47;3.10;;;37.20;92.40;;;;;;4955455;28;20038;-85
2023/09/03 12:24:07;;;;;;;3.50;3.20;;;37.30;91.10;;;;;;4939857;28;20023;-86
2023/09/03 12:26:35;;;;;;;3.70;3.40;;;37.40;91.70;;;;;;4970219;28;20034;-86
2023/09/03 12:29:17;;;;;;;3.47;3.10;;;37.50;93.70;;;;;;4963399;28;20395;-86
2023/09/03 12:31:45;;;;;;;3.70;3.30;;;37.60;93.90;;;;;;4928032;28;20510;-85
2023/09/03 12:34:11;;;;;;;3.30;3.00;;;37.60;92.80;;;;;;4960685;28;20447;-85
2023/09/03 12:36:57;;;;;;;3.55;3.10;;;37.70;93.20;;;;;;4966687;28;20062;-87
2023/09/03 12:39:30;;;;;;;3.03;2.80;;;37.80;87.70;;;;;;4938545;28;20108;-86
2023/09/03 12:41:56;;;;;;;3.60;3.30;;;37.80;88.00;;;;;;4965409;28;20487;-85
2023/09/03 12:44:22;;;;;;;3.70;3.40;;;37.80;91.80;;;;;;4965982;28;20570;-87
2023/09/03 12:46:48;;;;;;;3.20;2.90;;;37.80;91.30;;;;;;4947504;28;20026;-86
2023/09/03 12:49:14;;;;;;;3.28;2.97;;;37.80;91.00;;;;;;4953466;28;20045;-84